sensor_id;sensor_type;location;lat;lon;timestamp;pressure;altitude;pressure_sealevel;temperature;humidity
49945;BME280;35838;49.134;9.212;2023-07-08T00:01:25;99881.38;;;22.14;94.38
49945;BME280;35838;49.134;9.212;2023-07-08T00:02:56;99879.75;;;22.11;95.14
49945;BME280;35838;49.134;9.212;2023-07-08T00:04:30;99877.88;;;22.13;93.60
49945;BME280;35838;49.134;9.212;2023-07-08T00:06:04;99874.63;;;22.08;93.96
49945;BME280;35838;49.134;9.212;2023-07-08T00:07:37;99870.78;;;22.14;92.96
49945;BME280;35838;49.134;9.212;2023-07-08T00:09:11;99869.56;;;22.21;93.79
49945;BME280;35838;49.134;9.212;2023-07-08T00:10:42;99876.81;;;22.00;92.76
49945;BME280;35838;49.134;9.212;2023-07-08T00:12:16;99880.75;;;22.09;93.27
49945;BME280;35838;49.134;9.212;2023-07-08T00:13:47;99868.09;;;22.15;92.83
49945;BME280;35838;49.134;9.212;2023-07-08T00:15:21;99863.75;;;22.14;92.91
49945;BME280;35838;49.134;9.212;2023-07-08T00:16:52;99872.47;;;21.99;94.78
49945;BME280;35838;49.134;9.212;2023-07-08T00:18:28;99868.03;;;21.99;95.21
49945;BME280;35838;49.134;9.212;2023-07-08T00:19:59;99865.25;;;22.02;95.25
49945;BME280;35838;49.134;9.212;2023-07-08T00:21:35;99864.31;;;22.03;94.80
49945;BME280;35838;49.134;9.212;2023-07-08T00:23:09;99863.59;;;22.00;96.78
49945;BME280;35838;49.134;9.212;2023-07-08T00:24:41;99863.91;;;21.94;97.06
49945;BME280;35838;49.134;9.212;2023-07-08T00:26:15;99859.97;;;21.85;97.07
49945;BME280;35838;49.134;9.212;2023-07-08T00:27:51;99862.78;;;21.82;97.53
49945;BME280;35838;49.134;9.212;2023-07-08T00:29:24;99854.94;;;21.80;97.96
49945;BME280;35838;49.134;9.212;2023-07-08T00:30:55;99854.06;;;21.80;98.32
49945;BME280;35838;49.134;9.212;2023-07-08T00:32:29;99857.25;;;21.69;100.00
49945;BME280;35838;49.134;9.212;2023-07-08T00:34:00;99847.28;;;21.56;100.00
49945;BME280;35838;49.134;9.212;2023-07-08T00:35:34;99852.56;;;21.56;100.00
49945;BME280;35838;49.134;9.212;2023-07-08T00:37:10;99851.19;;;21.49;100.00
49945;BME280;35838;49.134;9.212;2023-07-08T00:38:44;99852.31;;;21.63;100.00
49945;BME280;35838;49.134;9.212;2023-07-08T00:40:16;99851.03;;;21.52;100.00
49945;BME280;35838;49.134;9.212;2023-07-08T00:41:50;99856.31;;;21.52;100.00
49945;BME280;35838;49.134;9.212;2023-07-08T00:43:24;99854.16;;;21.60;100.00
49945;BME280;35838;49.134;9.212;2023-07-08T00:44:59;99858.03;;;21.53;100.00
49945;BME280;35838;49.134;9.212;2023-07-08T00:46:38;99863.34;;;21.52;100.00
49945;BME280;35838;49.134;9.212;2023-07-08T00:48:17;99861.72;;;21.49;100.00
49945;BME280;35838;49.134;9.212;2023-07-08T00:49:50;99867.00;;;21.49;100.00
49945;BME280;35838;49.134;9.212;2023-07-08T00:51:26;99865.31;;;21.48;100.00
49945;BME280;35838;49.134;9.212;2023-07-08T00:53:20;99863.31;;;21.53;100.00
49945;BME280;35838;49.134;9.212;2023-07-08T00:54:55;99870.06;;;21.41;100.00
49945;BME280;35838;49.134;9.212;2023-07-08T00:56:31;99870.06;;;21.41;100.00
49945;BME280;35838;49.134;9.212;2023-07-08T00:58:03;99869.03;;;21.44;100.00
49945;BME280;35838;49.134;9.212;2023-07-08T00:59:38;99879.88;;;21.38;100.00
49945;BME280;35838;49.134;9.212;2023-07-08T01:01:10;99874.78;;;21.35;100.00
49945;BME280;35838;49.134;9.212;2023-07-08T01:02:46;99883.16;;;21.43;100.00
49945;BME280;35838;49.134;9.212;2023-07-08T01:04:18;99891.44;;;21.35;100.00
49945;BME280;35838;49.134;9.212;2023-07-08T01:05:53;99891.91;;;21.26;100.00
49945;BME280;35838;49.134;9.212;2023-07-08T01:07:29;99902.41;;;21.27;100.00
49945;BME280;35838;49.134;9.212;2023-07-08T01:09:06;99901.41;;;21.30;99.96
49945;BME280;35838;49.134;9.212;2023-07-08T01:10:39;99899.59;;;21.31;99.26
49945;BME280;35838;49.134;9.212;2023-07-08T01:12:17;99905.97;;;21.26;99.90
49945;BME280;35838;49.134;9.212;2023-07-08T01:13:49;99900.75;;;21.25;100.00
49945;BME280;35838;49.134;9.212;2023-07-08T01:15:25;99903.47;;;21.23;100.00
49945;BME280;35838;49.134;9.212;2023-07-08T01:16:58;99892.91;;;21.23;100.00
49945;BME280;35838;49.134;9.212;2023-07-08T01:18:31;99896.47;;;21.22;100.00
49945;BME280;35838;49.134;9.212;2023-07-08T01:20:07;99893.22;;;21.17;100.00
49945;BME280;35838;49.134;9.212;2023-07-08T01:21:47;99888.16;;;21.12;100.00
49945;BME280;35838;49.134;9.212;2023-07-08T01:23:31;99886.06;;;21.02;100.00
49945;BME280;35838;49.134;9.212;2023-07-08T01:25:03;99886.66;;;21.07;100.00
49945;BME280;35838;49.134;9.212;2023-07-08T01:26:37;99880.81;;;21.00;100.00
49945;BME280;35838;49.134;9.212;2023-07-08T01:28:09;99877.69;;;20.92;100.00
49945;BME280;35838;49.134;9.212;2023-07-08T01:29:43;99879.34;;;20.94;100.00
49945;BME280;35838;49.134;9.212;2023-07-08T01:31:15;99878.28;;;20.98;100.00
49945;BME280;35838;49.134;9.212;2023-07-08T01:32:49;99878.50;;;20.94;100.00
49945;BME280;35838;49.134;9.212;2023-07-08T01:34:22;99873.69;;;21.02;100.00
49945;BME280;35838;49.134;9.212;2023-07-08T01:35:56;99873.13;;;20.95;100.00
49945;BME280;35838;49.134;9.212;2023-07-08T01:37:31;99874.84;;;20.96;100.00
49945;BME280;35838;49.134;9.212;2023-07-08T01:39:08;99875.34;;;20.66;100.00
49945;BME280;35838;49.134;9.212;2023-07-08T01:40:50;99883.03;;;20.71;100.00
49945;BME280;35838;49.134;9.212;2023-07-08T01:42:22;99876.81;;;20.53;100.00
49945;BME280;35838;49.134;9.212;2023-07-08T01:43:56;99883.03;;;20.52;100.00
49945;BME280;35838;49.134;9.212;2023-07-08T01:45:31;99886.25;;;20.59;100.00
49945;BME280;35838;49.134;9.212;2023-07-08T01:47:04;99886.94;;;20.62;100.00
49945;BME280;35838;49.134;9.212;2023-07-08T01:48:38;99878.19;;;20.62;100.00
49945;BME280;35838;49.134;9.212;2023-07-08T01:50:10;99886.09;;;20.62;100.00
49945;BME280;35838;49.134;9.212;2023-07-08T01:51:44;99877.81;;;20.70;100.00
49945;BME280;35838;49.134;9.212;2023-07-08T01:53:26;99873.13;;;20.57;100.00
49945;BME280;35838;49.134;9.212;2023-07-08T01:54:58;99876.13;;;20.49;100.00
49945;BME280;35838;49.134;9.212;2023-07-08T01:56:31;99873.97;;;20.39;100.00
49945;BME280;35838;49.134;9.212;2023-07-08T01:58:05;99873.81;;;20.42;100.00
49945;BME280;35838;49.134;9.212;2023-07-08T01:59:36;99875.94;;;20.33;100.00
49945;BME280;35838;49.134;9.212;2023-07-08T02:01:10;99876.53;;;20.40;100.00
49945;BME280;35838;49.134;9.212;2023-07-08T02:02:41;99881.69;;;20.43;100.00
49945;BME280;35838;49.134;9.212;2023-07-08T02:04:14;99878.47;;;20.56;100.00
49945;BME280;35838;49.134;9.212;2023-07-08T02:05:45;99886.03;;;20.44;100.00
49945;BME280;35838;49.134;9.212;2023-07-08T02:07:19;99883.91;;;20.53;100.00
49945;BME280;35838;49.134;9.212;2023-07-08T02:08:53;99885.81;;;20.49;100.00
49945;BME280;35838;49.134;9.212;2023-07-08T02:10:29;99885.03;;;20.47;100.00
49945;BME280;35838;49.134;9.212;2023-07-08T02:12:00;99877.13;;;20.47;100.00
49945;BME280;35838;49.134;9.212;2023-07-08T02:13:34;99877.25;;;20.44;100.00
49945;BME280;35838;49.134;9.212;2023-07-08T02:15:05;99876.44;;;20.42;100.00
49945;BME280;35838;49.134;9.212;2023-07-08T02:16:39;99869.47;;;20.41;100.00
49945;BME280;35838;49.134;9.212;2023-07-08T02:18:13;99860.00;;;20.37;100.00
49945;BME280;35838;49.134;9.212;2023-07-08T02:19:44;99867.28;;;20.31;100.00
49945;BME280;35838;49.134;9.212;2023-07-08T02:21:18;99862.06;;;20.30;100.00
49945;BME280;35838;49.134;9.212;2023-07-08T02:22:49;99864.69;;;20.30;100.00
49945;BME280;35838;49.134;9.212;2023-07-08T02:24:25;99862.00;;;20.31;100.00
49945;BME280;35838;49.134;9.212;2023-07-08T02:25:56;99857.66;;;20.30;100.00
49945;BME280;35838;49.134;9.212;2023-07-08T02:27:30;99865.81;;;20.24;100.00
49945;BME280;35838;49.134;9.212;2023-07-08T02:29:01;99866.69;;;20.25;100.00
49945;BME280;35838;49.134;9.212;2023-07-08T02:30:35;99865.91;;;20.23;100.00
49945;BME280;35838;49.134;9.212;2023-07-08T02:32:07;99874.72;;;20.22;100.00
49945;BME280;35838;49.134;9.212;2023-07-08T02:33:41;99870.16;;;20.25;100.00
49945;BME280;35838;49.134;9.212;2023-07-08T02:35:15;99869.81;;;20.14;100.00
49945;BME280;35838;49.134;9.212;2023-07-08T02:36:46;99872.69;;;20.08;100.00
49945;BME280;35838;49.134;9.212;2023-07-08T02:38:20;99874.50;;;20.07;100.00
49945;BME280;35838;49.134;9.212;2023-07-08T02:39:53;99872.06;;;20.02;100.00
49945;BME280;35838;49.134;9.212;2023-07-08T02:41:27;99880.59;;;20.08;100.00
49945;BME280;35838;49.134;9.212;2023-07-08T02:43:00;99876.22;;;20.08;100.00
49945;BME280;35838;49.134;9.212;2023-07-08T02:44:31;99878.97;;;20.05;100.00
49945;BME280;35838;49.134;9.212;2023-07-08T02:46:05;99881.59;;;20.05;100.00
49945;BME280;35838;49.134;9.212;2023-07-08T02:47:39;99880.81;;;20.03;100.00
49945;BME280;35838;49.134;9.212;2023-07-08T02:49:10;99884.22;;;20.05;100.00
49945;BME280;35838;49.134;9.212;2023-07-08T02:50:44;99883.72;;;19.97;100.00
49945;BME280;35838;49.134;9.212;2023-07-08T02:52:15;99880.34;;;19.93;100.00
49945;BME280;35838;49.134;9.212;2023-07-08T02:53:49;99881.28;;;19.92;100.00
49945;BME280;35838;49.134;9.212;2023-07-08T02:55:22;99888.06;;;19.98;100.00
49945;BME280;35838;49.134;9.212;2023-07-08T02:56:56;99887.25;;;19.96;100.00
49945;BME280;35838;49.134;9.212;2023-07-08T02:58:27;99890.56;;;20.01;100.00
49945;BME280;35838;49.134;9.212;2023-07-08T03:00:01;99888.25;;;19.93;100.00
49945;BME280;35838;49.134;9.212;2023-07-08T03:01:34;99890.09;;;19.91;100.00
49945;BME280;35838;49.134;9.212;2023-07-08T03:03:12;99884.94;;;19.88;100.00
49945;BME280;35838;49.134;9.212;2023-07-08T03:04:43;99895.25;;;19.94;100.00
49945;BME280;35838;49.134;9.212;2023-07-08T03:06:16;99896.28;;;19.90;100.00
49945;BME280;35838;49.134;9.212;2023-07-08T03:07:50;99897.44;;;19.83;100.00
49945;BME280;35838;49.134;9.212;2023-07-08T03:09:21;99902.97;;;19.77;100.00
49945;BME280;35838;49.134;9.212;2023-07-08T03:10:58;99901.25;;;19.76;100.00
49945;BME280;35838;49.134;9.212;2023-07-08T03:12:30;99902.28;;;19.71;100.00
49945;BME280;35838;49.134;9.212;2023-07-08T09:16:34;100024.84;;;26.26;83.53
49945;BME280;35838;49.134;9.212;2023-07-08T09:18:13;100016.34;;;26.21;84.63
49945;BME280;35838;49.134;9.212;2023-07-08T09:19:47;100018.91;;;26.36;86.62
49945;BME280;35838;49.134;9.212;2023-07-08T09:21:24;100016.56;;;26.44;86.39
49945;BME280;35838;49.134;9.212;2023-07-08T09:22:58;100013.47;;;26.50;83.86
49945;BME280;35838;49.134;9.212;2023-07-08T09:24:41;100013.59;;;26.49;84.36
49945;BME280;35838;49.134;9.212;2023-07-08T09:26:13;100023.41;;;26.61;86.52
49945;BME280;35838;49.134;9.212;2023-07-08T09:27:49;100012.44;;;26.66;86.89
49945;BME280;35838;49.134;9.212;2023-07-08T09:29:20;100015.81;;;26.68;87.26
49945;BME280;35838;49.134;9.212;2023-07-08T09:30:55;100008.09;;;26.78;85.84
49945;BME280;35838;49.134;9.212;2023-07-08T09:32:29;100009.78;;;26.79;85.41
49945;BME280;35838;49.134;9.212;2023-07-08T09:34:05;100009.84;;;26.90;86.98
49945;BME280;35838;49.134;9.212;2023-07-08T09:35:40;100005.16;;;26.94;83.26
49945;BME280;35838;49.134;9.212;2023-07-08T09:37:21;100006.88;;;26.95;80.98
49945;BME280;35838;49.134;9.212;2023-07-08T09:38:53;100011.03;;;26.99;76.60
49945;BME280;35838;49.134;9.212;2023-07-08T09:40:28;100007.41;;;27.00;74.28
49945;BME280;35838;49.134;9.212;2023-07-08T09:42:02;100012.91;;;27.10;75.84
49945;BME280;35838;49.134;9.212;2023-07-08T09:43:40;100006.59;;;27.24;77.76
49945;BME280;35838;49.134;9.212;2023-07-08T09:45:12;100008.81;;;27.30;70.40
49945;BME280;35838;49.134;9.212;2023-07-08T09:46:46;100012.63;;;27.39;77.61
49945;BME280;35838;49.134;9.212;2023-07-08T09:48:21;100007.31;;;27.39;76.07
49945;BME280;35838;49.134;9.212;2023-07-08T09:49:55;100011.75;;;27.38;75.14
49945;BME280;35838;49.134;9.212;2023-07-08T09:51:26;100002.59;;;27.42;76.18
49945;BME280;35838;49.134;9.212;2023-07-08T09:52:59;100001.22;;;27.36;75.22
49945;BME280;35838;49.134;9.212;2023-07-08T09:54:35;100009.19;;;27.49;77.68
49945;BME280;35838;49.134;9.212;2023-07-08T09:56:06;100015.00;;;27.43;75.99
49945;BME280;35838;49.134;9.212;2023-07-08T09:57:42;100016.59;;;27.33;75.25
49945;BME280;35838;49.134;9.212;2023-07-08T09:59:16;100013.91;;;27.33;72.86
49945;BME280;35838;49.134;9.212;2023-07-08T10:00:50;100009.97;;;27.39;74.39
49945;BME280;35838;49.134;9.212;2023-07-08T10:02:26;100020.31;;;27.43;75.17
49945;BME280;35838;49.134;9.212;2023-07-08T10:04:00;100009.97;;;27.39;74.29
49945;BME280;35838;49.134;9.212;2023-07-08T10:05:35;100015.00;;;27.43;75.70
49945;BME280;35838;49.134;9.212;2023-07-08T10:07:07;100018.50;;;27.44;76.03
49945;BME280;35838;49.134;9.212;2023-07-08T10:08:43;100022.53;;;27.49;73.25
49945;BME280;35838;49.134;9.212;2023-07-08T10:10:17;100022.03;;;27.44;69.58
49945;BME280;35838;49.134;9.212;2023-07-08T10:11:51;100018.69;;;27.54;70.02
49945;BME280;35838;49.134;9.212;2023-07-08T10:13:27;100010.22;;;27.60;70.24
49945;BME280;35838;49.134;9.212;2023-07-08T10:15:06;100011.81;;;27.62;70.00
49945;BME280;35838;49.134;9.212;2023-07-08T10:16:43;100015.00;;;27.67;70.76
49945;BME280;35838;49.134;9.212;2023-07-08T10:18:17;100001.22;;;27.74;70.52
49945;BME280;35838;49.134;9.212;2023-07-08T10:19:57;100006.66;;;27.72;71.89
49945;BME280;35838;49.134;9.212;2023-07-08T10:21:33;100001.00;;;27.77;70.46
49945;BME280;35838;49.134;9.212;2023-07-08T10:23:08;99997.72;;;27.84;71.20
49945;BME280;35838;49.134;9.212;2023-07-08T10:24:50;99989.78;;;27.96;72.70
49945;BME280;35838;49.134;9.212;2023-07-08T10:26:24;99988.56;;;28.00;69.94
49945;BME280;35838;49.134;9.212;2023-07-08T10:28:01;99986.84;;;28.12;70.92
49945;BME280;35838;49.134;9.212;2023-07-08T10:29:35;99983.28;;;28.11;70.61
49945;BME280;35838;49.134;9.212;2023-07-08T10:31:16;99984.88;;;28.14;70.42
49945;BME280;35838;49.134;9.212;2023-07-08T10:34:46;99985.44;;;28.06;63.77
49945;BME280;35838;49.134;9.212;2023-07-08T10:36:21;99982.56;;;28.09;62.92
49945;BME280;35838;49.134;9.212;2023-07-08T10:38:02;99988.75;;;28.10;63.96
49945;BME280;35838;49.134;9.212;2023-07-08T10:41:24;99978.38;;;28.29;64.89
49945;BME280;35838;49.134;9.212;2023-07-08T10:43:05;99982.50;;;28.45;66.43
49945;BME280;35838;49.134;9.212;2023-07-08T10:44:44;99979.72;;;28.58;72.32
49945;BME280;35838;49.134;9.212;2023-07-08T10:46:26;99978.50;;;28.62;66.64
49945;BME280;35838;49.134;9.212;2023-07-08T10:48:06;99983.47;;;28.44;61.30
49945;BME280;35838;49.134;9.212;2023-07-08T10:49:49;99974.38;;;28.46;60.69
49945;BME280;35838;49.134;9.212;2023-07-08T10:51:31;99976.81;;;28.50;63.53
49945;BME280;35838;49.134;9.212;2023-07-08T10:53:09;99979.28;;;28.75;68.96
49945;BME280;35838;49.134;9.212;2023-07-08T10:54:49;99973.66;;;28.79;68.78
49945;BME280;35838;49.134;9.212;2023-07-08T10:56:28;99975.13;;;28.83;64.98
49945;BME280;35838;49.134;9.212;2023-07-08T10:58:16;99969.06;;;28.81;62.39
49945;BME280;35838;49.134;9.212;2023-07-08T10:59:53;99963.25;;;28.87;63.64
49945;BME280;35838;49.134;9.212;2023-07-08T11:01:35;99964.69;;;29.02;66.72
49945;BME280;35838;49.134;9.212;2023-07-08T11:03:16;99958.59;;;29.12;61.29
49945;BME280;35838;49.134;9.212;2023-07-08T11:04:56;99962.47;;;29.19;62.78
49945;BME280;35838;49.134;9.212;2023-07-08T11:06:34;99961.13;;;29.24;61.09
49945;BME280;35838;49.134;9.212;2023-07-08T11:08:12;99962.94;;;29.35;62.92
49945;BME280;35838;49.134;9.212;2023-07-08T11:09:46;99964.38;;;29.39;63.80
49945;BME280;35838;49.134;9.212;2023-07-08T11:11:26;99953.59;;;29.62;64.49
49945;BME280;35838;49.134;9.212;2023-07-08T11:13:00;99964.03;;;29.65;60.38
49945;BME280;35838;49.134;9.212;2023-07-08T11:14:37;99960.13;;;29.69;54.92
49945;BME280;35838;49.134;9.212;2023-07-08T11:16:12;99957.38;;;29.60;53.31
49945;BME280;35838;49.134;9.212;2023-07-08T11:17:49;99958.94;;;29.62;55.35
49945;BME280;35838;49.134;9.212;2023-07-08T11:19:24;99958.94;;;29.62;57.54
49945;BME280;35838;49.134;9.212;2023-07-08T11:21:01;99954.75;;;29.48;55.87
49945;BME280;35838;49.134;9.212;2023-07-08T11:22:36;99956.56;;;29.48;54.74
49945;BME280;35838;49.134;9.212;2023-07-08T11:24:14;99957.66;;;29.45;54.75
49945;BME280;35838;49.134;9.212;2023-07-08T11:25:49;99954.69;;;29.60;55.13
49945;BME280;35838;49.134;9.212;2023-07-08T11:27:25;99952.47;;;29.65;56.50
49945;BME280;35838;49.134;9.212;2023-07-08T11:29:00;99953.34;;;29.65;57.88
49945;BME280;35838;49.134;9.212;2023-07-08T11:30:31;99943.16;;;29.59;56.17
49945;BME280;35838;49.134;9.212;2023-07-08T11:32:11;99949.38;;;29.81;61.47
49945;BME280;35838;49.134;9.212;2023-07-08T11:33:43;99939.25;;;29.96;65.77
49945;BME280;35838;49.134;9.212;2023-07-08T11:35:19;99944.06;;;30.02;58.14
49945;BME280;35838;49.134;9.212;2023-07-08T11:36:52;99941.44;;;30.12;57.01
49945;BME280;35838;49.134;9.212;2023-07-08T11:38:29;99941.59;;;30.20;54.42
49945;BME280;35838;49.134;9.212;2023-07-08T11:40:06;99942.19;;;30.45;50.13
49945;BME280;35838;49.134;9.212;2023-07-08T11:41:40;99937.31;;;30.60;49.44
49945;BME280;35838;49.134;9.212;2023-07-08T11:43:12;99940.16;;;30.37;48.31
49945;BME280;35838;49.134;9.212;2023-07-08T11:44:47;99940.06;;;30.48;52.64
49945;BME280;35838;49.134;9.212;2023-07-08T11:46:22;99940.56;;;30.32;47.81
49945;BME280;35838;49.134;9.212;2023-07-08T11:48:03;99943.44;;;30.51;48.76
49945;BME280;35838;49.134;9.212;2023-07-08T11:49:35;99941.13;;;30.57;46.92
49945;BME280;35838;49.134;9.212;2023-07-08T11:51:09;99940.00;;;30.60;45.50
49945;BME280;35838;49.134;9.212;2023-07-08T11:52:52;99936.47;;;30.59;44.28
49945;BME280;35838;49.134;9.212;2023-07-08T11:54:29;99938.09;;;30.72;42.18
49945;BME280;35838;49.134;9.212;2023-07-08T11:56:04;99934.53;;;30.71;41.46
49945;BME280;35838;49.134;9.212;2023-07-08T11:57:36;99940.03;;;30.70;42.79
49945;BME280;35838;49.134;9.212;2023-07-08T11:59:12;99935.81;;;30.46;41.07
49945;BME280;35838;49.134;9.212;2023-07-08T12:00:45;99938.09;;;30.51;42.65
49945;BME280;35838;49.134;9.212;2023-07-08T12:02:25;99930.63;;;30.75;43.71
49945;BME280;35838;49.134;9.212;2023-07-08T12:04:16;99923.00;;;30.81;43.20
49945;BME280;35838;49.134;9.212;2023-07-08T12:05:50;99916.50;;;30.73;43.80
49945;BME280;35838;49.134;9.212;2023-07-08T12:07:31;99914.00;;;30.91;45.56
49945;BME280;35838;49.134;9.212;2023-07-08T12:09:14;99910.38;;;31.02;46.55
49945;BME280;35838;49.134;9.212;2023-07-08T12:10:51;99920.16;;;31.23;46.60
49945;BME280;35838;49.134;9.212;2023-07-08T12:12:28;99918.00;;;31.07;43.80
49945;BME280;35838;49.134;9.212;2023-07-08T12:14:01;99915.22;;;31.18;43.35
49945;BME280;35838;49.134;9.212;2023-07-08T12:15:35;99907.03;;;31.10;42.97
49945;BME280;35838;49.134;9.212;2023-07-08T12:17:10;99906.47;;;31.26;41.59
49945;BME280;35838;49.134;9.212;2023-07-08T12:18:42;99895.19;;;31.52;42.76
49945;BME280;35838;49.134;9.212;2023-07-08T12:20:17;99900.53;;;31.81;41.25
49945;BME280;35838;49.134;9.212;2023-07-08T12:21:49;99903.56;;;32.06;40.84
49945;BME280;35838;49.134;9.212;2023-07-08T12:23:23;99902.41;;;32.28;42.48
49945;BME280;35838;49.134;9.212;2023-07-08T12:24:57;99900.25;;;32.32;39.42
49945;BME280;35838;49.134;9.212;2023-07-08T12:26:34;99901.41;;;31.72;39.72
49945;BME280;35838;49.134;9.212;2023-07-08T12:28:08;99903.94;;;31.83;40.63
49945;BME280;35838;49.134;9.212;2023-07-08T12:29:42;99898.00;;;31.60;39.13
49945;BME280;35838;49.134;9.212;2023-07-08T12:31:15;99895.59;;;31.86;38.86
49945;BME280;35838;49.134;9.212;2023-07-08T12:32:48;99893.91;;;31.85;38.99
49945;BME280;35838;49.134;9.212;2023-07-08T12:34:22;99895.00;;;31.93;38.98
49945;BME280;35838;49.134;9.212;2023-07-08T12:35:55;99887.59;;;32.14;39.71
49945;BME280;35838;49.134;9.212;2023-07-08T12:37:29;99887.16;;;32.57;39.84
49945;BME280;35838;49.134;9.212;2023-07-08T12:39:01;99890.25;;;32.62;38.60
49945;BME280;35838;49.134;9.212;2023-07-08T12:40:35;99891.94;;;32.63;35.76
49945;BME280;35838;49.134;9.212;2023-07-08T12:42:11;99888.84;;;32.58;35.45
49945;BME280;35838;49.134;9.212;2023-07-08T12:43:45;99891.75;;;32.74;35.53
49945;BME280;35838;49.134;9.212;2023-07-08T12:45:17;99882.72;;;33.11;34.59
49945;BME280;35838;49.134;9.212;2023-07-08T12:46:52;99881.03;;;32.92;33.86
49945;BME280;35838;49.134;9.212;2023-07-08T12:48:23;99884.66;;;33.19;35.22
49945;BME280;35838;49.134;9.212;2023-07-08T12:49:57;99883.34;;;33.05;33.76
49945;BME280;35838;49.134;9.212;2023-07-08T12:51:28;99884.75;;;33.09;33.66
49945;BME280;35838;49.134;9.212;2023-07-08T12:53:03;99877.22;;;33.13;33.66
49945;BME280;35838;49.134;9.212;2023-07-08T12:54:40;99880.50;;;33.61;33.35
49945;BME280;35838;49.134;9.212;2023-07-08T12:56:13;99878.41;;;33.99;32.85
49945;BME280;35838;49.134;9.212;2023-07-08T12:57:50;99884.22;;;33.86;32.79
49945;BME280;35838;49.134;9.212;2023-07-08T12:59:24;99889.78;;;33.67;33.00
49945;BME280;35838;49.134;9.212;2023-07-08T13:00:56;99891.16;;;33.89;33.59
49945;BME280;35838;49.134;9.212;2023-07-08T13:02:30;99885.94;;;34.22;31.77
49945;BME280;35838;49.134;9.212;2023-07-08T13:04:03;99884.78;;;34.59;31.34
49945;BME280;35838;49.134;9.212;2023-07-08T13:05:38;99883.72;;;34.95;32.29
49945;BME280;35838;49.134;9.212;2023-07-08T13:07:16;99874.16;;;35.34;32.22
49945;BME280;35838;49.134;9.212;2023-07-08T13:08:56;99875.84;;;35.18;30.97
49945;BME280;35838;49.134;9.212;2023-07-08T13:10:28;99883.91;;;35.10;30.20
49945;BME280;35838;49.134;9.212;2023-07-08T13:12:03;99883.41;;;35.39;29.79
49945;BME280;35838;49.134;9.212;2023-07-08T13:13:39;99881.34;;;34.92;30.28
49945;BME280;35838;49.134;9.212;2023-07-08T13:15:17;99884.44;;;35.63;30.41
49945;BME280;35838;49.134;9.212;2023-07-08T13:16:50;99884.94;;;35.91;29.32
49945;BME280;35838;49.134;9.212;2023-07-08T13:18:30;99877.56;;;36.25;28.44
49945;BME280;35838;49.134;9.212;2023-07-08T13:20:05;99871.97;;;36.35;28.11
49945;BME280;35838;49.134;9.212;2023-07-08T13:21:36;99878.59;;;36.64;28.11
49945;BME280;35838;49.134;9.212;2023-07-08T13:23:10;99871.06;;;37.14;28.37
49945;BME280;35838;49.134;9.212;2023-07-08T13:24:45;99871.94;;;37.53;27.88
49945;BME280;35838;49.134;9.212;2023-07-08T13:26:17;99879.03;;;37.92;27.26
49945;BME280;35838;49.134;9.212;2023-07-08T13:27:55;99871.94;;;38.21;27.04
49945;BME280;35838;49.134;9.212;2023-07-08T13:29:33;99869.63;;;38.69;26.76
49945;BME280;35838;49.134;9.212;2023-07-08T13:31:13;99877.75;;;38.84;26.38
49945;BME280;35838;49.134;9.212;2023-07-08T13:32:48;99867.34;;;38.88;25.76
49945;BME280;35838;49.134;9.212;2023-07-08T13:34:19;99877.94;;;38.83;26.37
49945;BME280;35838;49.134;9.212;2023-07-08T13:35:53;99869.72;;;39.20;26.23
49945;BME280;35838;49.134;9.212;2023-07-08T13:37:26;99870.19;;;39.23;26.21
49945;BME280;35838;49.134;9.212;2023-07-08T13:38:59;99865.16;;;39.42;27.19
49945;BME280;35838;49.134;9.212;2023-07-08T13:40:32;99861.41;;;39.71;27.43
49945;BME280;35838;49.134;9.212;2023-07-08T13:42:06;99862.41;;;39.99;26.31
49945;BME280;35838;49.134;9.212;2023-07-08T13:43:39;99859.13;;;39.46;24.25
49945;BME280;35838;49.134;9.212;2023-07-08T13:45:17;99865.16;;;39.42;24.85
49945;BME280;35838;49.134;9.212;2023-07-08T13:46:51;99870.97;;;39.17;24.86
49945;BME280;35838;49.134;9.212;2023-07-08T13:48:26;99871.59;;;38.97;25.38
49945;BME280;35838;49.134;9.212;2023-07-08T13:50:01;99864.44;;;38.23;25.23
49945;BME280;35838;49.134;9.212;2023-07-08T13:51:38;99866.97;;;38.09;26.00
49945;BME280;35838;49.134;9.212;2023-07-08T13:53:17;99874.13;;;38.62;26.42
49945;BME280;35838;49.134;9.212;2023-07-08T13:54:52;99869.16;;;39.02;25.99
49945;BME280;35838;49.134;9.212;2023-07-08T13:56:25;99869.59;;;39.06;24.92
49945;BME280;35838;49.134;9.212;2023-07-08T13:58:01;99872.06;;;39.73;25.66
49945;BME280;35838;49.134;9.212;2023-07-08T13:59:32;99866.81;;;39.21;24.55
49945;BME280;35838;49.134;9.212;2023-07-08T14:01:10;99866.28;;;39.11;24.27
49945;BME280;35838;49.134;9.212;2023-07-08T14:02:47;99865.03;;;39.07;25.33
49945;BME280;35838;49.134;9.212;2023-07-08T14:04:24;99858.88;;;39.20;26.00
49945;BME280;35838;49.134;9.212;2023-07-08T14:05:56;99863.97;;;38.86;25.12
49945;BME280;35838;49.134;9.212;2023-07-08T14:07:31;99861.16;;;38.58;26.84
49945;BME280;35838;49.134;9.212;2023-07-08T14:09:06;99855.94;;;38.41;27.58
49945;BME280;35838;49.134;9.212;2023-07-08T14:10:42;99856.13;;;38.24;28.53
49945;BME280;35838;49.134;9.212;2023-07-08T14:12:15;99850.41;;;37.74;26.52
49945;BME280;35838;49.134;9.212;2023-07-08T14:13:49;99851.69;;;37.49;27.28
49945;BME280;35838;49.134;9.212;2023-07-08T14:15:20;99850.66;;;37.65;27.61
49945;BME280;35838;49.134;9.212;2023-07-08T14:16:57;99852.72;;;37.47;26.92
49945;BME280;35838;49.134;9.212;2023-07-08T14:18:28;99850.09;;;36.84;27.04
49945;BME280;35838;49.134;9.212;2023-07-08T14:20:04;99861.25;;;36.90;26.68
49945;BME280;35838;49.134;9.212;2023-07-08T14:21:36;99861.88;;;36.20;26.91
49945;BME280;35838;49.134;9.212;2023-07-08T14:23:10;99864.22;;;36.32;27.14
49945;BME280;35838;49.134;9.212;2023-07-08T14:24:43;99871.13;;;36.34;27.35
49945;BME280;35838;49.134;9.212;2023-07-08T14:26:17;99865.63;;;36.11;26.52